createdAt,value
2022-10-28T00:01:20.927Z,9.00
2022-10-28T00:03:52.152Z,9.00
2022-10-28T00:06:22.829Z,9.00
2022-10-28T00:08:50.417Z,9.00
2022-10-28T00:11:20.565Z,8.90
2022-10-28T00:13:48.229Z,8.90
2022-10-28T00:16:21.113Z,8.90
2022-10-28T00:18:48.625Z,8.80
2022-10-28T00:21:18.476Z,8.70
2022-10-28T00:23:46.038Z,8.70
2022-10-28T00:26:15.611Z,8.80
2022-10-28T00:28:44.744Z,8.90
2022-10-28T00:31:13.382Z,8.90
2022-10-28T00:33:40.623Z,8.90
2022-10-28T00:36:16.860Z,8.90
2022-10-28T00:38:45.239Z,8.90
2022-10-28T00:41:14.564Z,8.90
2022-10-28T00:43:45.905Z,8.80
2022-10-28T00:46:29.619Z,8.70
2022-10-28T00:49:06.146Z,8.60
2022-10-28T00:51:35.580Z,8.50
2022-10-28T00:54:04.572Z,8.40
2022-10-28T00:56:34.658Z,8.30
2022-10-28T00:59:04.413Z,8.10
2022-10-28T01:01:31.735Z,8.00
2022-10-28T01:03:59.552Z,7.90
2022-10-28T01:06:28.786Z,7.90
2022-10-28T01:08:59.094Z,7.90
2022-10-28T01:12:06.239Z,7.80
2022-10-28T01:14:42.576Z,7.90
2022-10-28T01:17:27.804Z,7.90
2022-10-28T01:20:36.179Z,7.90
2022-10-28T01:23:12.769Z,7.70
2022-10-28T01:25:51.852Z,7.80
2022-10-28T01:28:25.209Z,7.80
2022-10-28T01:31:10.011Z,7.80
2022-10-28T01:33:44.513Z,7.80
2022-10-28T01:36:16.250Z,7.60
2022-10-28T01:38:54.818Z,7.50
2022-10-28T01:41:31.800Z,7.40
2022-10-28T01:44:34.168Z,7.20
2022-10-28T01:47:22.623Z,7.20
2022-10-28T01:50:01.033Z,7.40
2022-10-28T01:52:31.268Z,7.40
2022-10-28T01:55:08.636Z,7.50
2022-10-28T01:57:38.664Z,7.60
2022-10-28T02:00:06.660Z,7.60
2022-10-28T02:02:39.790Z,7.60
2022-10-28T02:05:46.049Z,7.50
2022-10-28T02:08:18.976Z,7.40
2022-10-28T02:11:01.489Z,7.30
2022-10-28T02:13:54.443Z,7.40
2022-10-28T02:16:30.766Z,7.40
2022-10-28T02:19:32.879Z,7.40
2022-10-28T02:22:13.081Z,7.40
2022-10-28T02:25:15.234Z,7.50
2022-10-28T02:27:45.406Z,7.50
2022-10-28T02:30:21.336Z,7.60
2022-10-28T02:32:57.893Z,7.50
2022-10-28T02:35:38.843Z,7.40
2022-10-28T02:38:11.066Z,7.30
2022-10-28T02:40:39.814Z,7.30
2022-10-28T02:43:09.143Z,7.20
2022-10-28T02:45:43.030Z,7.10
2022-10-28T02:48:19.052Z,7.00
2022-10-28T02:50:53.226Z,7.00
2022-10-28T02:56:01.604Z,6.90
2022-10-28T02:58:29.139Z,6.90
2022-10-28T03:00:56.276Z,6.80
2022-10-28T03:03:23.382Z,6.80
2022-10-28T03:05:50.508Z,6.80
2022-10-28T03:08:17.611Z,6.70
2022-10-28T03:10:44.768Z,6.70
2022-10-28T03:13:11.694Z,6.70
2022-10-28T03:15:38.759Z,6.60
2022-10-28T03:18:05.831Z,6.60
2022-10-28T03:20:32.875Z,6.60
2022-10-28T03:22:59.975Z,6.60
2022-10-28T03:25:26.895Z,6.60
2022-10-28T03:27:53.958Z,6.60
2022-10-28T03:30:20.959Z,6.50
2022-10-28T03:32:48.031Z,6.50
2022-10-28T03:35:14.999Z,6.50
2022-10-28T03:37:44.988Z,6.50
2022-10-28T03:40:12.808Z,6.50
2022-10-28T03:42:42.906Z,6.50
2022-10-28T03:45:11.214Z,6.50
2022-10-28T03:47:39.889Z,6.50
2022-10-28T03:50:07.520Z,6.50
2022-10-28T03:52:34.880Z,6.50
2022-10-28T03:55:01.988Z,6.60
2022-10-28T03:57:33.060Z,6.50
2022-10-28T04:00:00.073Z,6.50
2022-10-28T04:02:27.378Z,6.50
2022-10-28T04:04:54.412Z,6.50
2022-10-28T04:07:21.492Z,6.60
2022-10-28T04:09:51.446Z,6.60
2022-10-28T04:12:19.126Z,6.70
2022-10-28T04:14:46.131Z,6.70
2022-10-28T04:17:13.968Z,6.80
2022-10-28T04:19:41.002Z,6.80
2022-10-28T04:22:09.168Z,6.80
2022-10-28T04:24:36.268Z,6.70
2022-10-28T04:27:03.263Z,6.70
2022-10-28T04:29:30.281Z,6.70
2022-10-28T04:31:57.311Z,6.60
2022-10-28T04:34:24.277Z,6.50
2022-10-28T04:36:51.622Z,6.40
2022-10-28T04:39:18.831Z,6.40
2022-10-28T04:41:45.910Z,6.30
2022-10-28T04:44:12.841Z,6.30
2022-10-28T04:46:40.754Z,6.30
2022-10-28T04:49:07.784Z,6.30
2022-10-28T04:51:34.815Z,6.30
2022-10-28T04:54:01.806Z,6.30
2022-10-28T04:56:31.081Z,6.30
2022-10-28T04:58:58.112Z,6.20
2022-10-28T05:01:25.126Z,6.20
2022-10-28T05:03:52.116Z,6.00
2022-10-28T05:06:19.053Z,5.90
2022-10-28T05:08:46.016Z,5.90
2022-10-28T05:11:12.996Z,6.00
2022-10-28T05:13:39.999Z,6.10
2022-10-28T05:16:07.718Z,6.10
2022-10-28T05:18:34.742Z,6.10
2022-10-28T05:21:01.762Z,6.20
2022-10-28T05:23:30.934Z,6.30
2022-10-28T05:25:58.515Z,6.30
2022-10-28T05:28:25.444Z,6.30
2022-10-28T05:30:52.347Z,6.30
2022-10-28T05:33:19.522Z,6.30
2022-10-28T05:35:46.807Z,6.40
2022-10-28T05:38:13.838Z,6.40
2022-10-28T05:40:40.890Z,6.40
2022-10-28T05:43:09.477Z,6.50
2022-10-28T05:45:37.183Z,6.60
2022-10-28T05:48:04.342Z,6.70
2022-10-28T05:50:31.567Z,6.80
2022-10-28T05:52:58.849Z,6.90
2022-10-28T05:55:28.477Z,6.90
2022-10-28T05:57:56.803Z,7.20
2022-10-28T06:00:26.604Z,7.30
2022-10-28T06:03:01.332Z,7.30
2022-10-28T06:05:28.472Z,7.30
2022-10-28T06:07:55.399Z,7.30
2022-10-28T06:10:22.494Z,7.40
2022-10-28T06:12:48.209Z,7.60
2022-10-28T06:15:15.218Z,7.80
2022-10-28T06:17:45.767Z,8.10
2022-10-28T06:20:12.917Z,8.30
2022-10-28T06:22:50.695Z,8.50
2022-10-28T06:25:19.789Z,9.00
2022-10-28T06:27:55.577Z,9.40
2022-10-28T06:30:23.804Z,9.50
2022-10-28T06:32:51.178Z,9.70
2022-10-28T06:35:18.471Z,9.90
2022-10-28T06:37:45.520Z,9.90
2022-10-28T06:40:13.660Z,9.90
2022-10-28T06:42:41.498Z,10.00
2022-10-28T06:45:16.996Z,10.00
2022-10-28T06:47:47.225Z,10.00
2022-10-28T06:50:14.670Z,10.20
2022-10-28T06:52:41.560Z,10.20
2022-10-28T06:55:08.812Z,10.20
2022-10-28T06:57:35.856Z,10.20
2022-10-28T07:00:03.029Z,10.10
2022-10-28T07:02:30.047Z,10.30
2022-10-28T07:04:57.179Z,10.50
2022-10-28T07:07:24.325Z,10.50
2022-10-28T07:09:51.295Z,10.60
2022-10-28T07:14:50.865Z,11.50
2022-10-28T07:17:18.051Z,11.90
2022-10-28T07:19:45.067Z,11.80
2022-10-28T07:22:12.393Z,11.90
2022-10-28T07:24:39.425Z,12.10
2022-10-28T07:27:06.372Z,12.10
2022-10-28T07:29:33.440Z,12.50
2022-10-28T07:32:00.954Z,12.70
2022-10-28T07:34:28.043Z,13.10
2022-10-28T07:36:55.846Z,13.60
2022-10-28T07:39:23.320Z,14.30
2022-10-28T07:41:50.344Z,14.80
2022-10-28T07:44:17.598Z,15.20
2022-10-28T07:46:44.533Z,15.40
2022-10-28T07:49:11.698Z,15.70
2022-10-28T07:51:38.660Z,16.00
2022-10-28T07:54:05.846Z,16.10
2022-10-28T07:56:32.837Z,15.80
2022-10-28T07:59:01.915Z,16.10
2022-10-28T08:01:30.417Z,16.70
2022-10-28T08:03:58.462Z,16.70
2022-10-28T08:06:25.567Z,17.20
2022-10-28T08:08:57.257Z,17.70
2022-10-28T08:11:24.570Z,17.90
2022-10-28T08:13:52.423Z,18.10
2022-10-28T08:16:19.804Z,18.10
2022-10-28T08:18:47.368Z,17.90
2022-10-28T08:21:15.555Z,17.80
2022-10-28T08:23:46.687Z,17.90
2022-10-28T08:26:15.801Z,18.00
2022-10-28T08:28:43.543Z,18.00
2022-10-28T08:31:12.491Z,18.20
2022-10-28T08:33:45.532Z,18.00
2022-10-28T08:36:14.332Z,18.00
2022-10-28T08:38:45.852Z,17.80
2022-10-28T08:41:47.420Z,17.80
2022-10-28T08:44:23.994Z,18.20
2022-10-28T08:47:15.945Z,18.40
2022-10-28T08:49:49.224Z,18.60
2022-10-28T08:52:25.901Z,18.80
2022-10-28T08:55:18.523Z,19.10
2022-10-28T08:57:58.376Z,19.50
2022-10-28T09:00:31.304Z,19.30
2022-10-28T09:03:03.537Z,19.40
2022-10-28T09:05:31.002Z,19.80
2022-10-28T09:07:58.946Z,19.60
2022-10-28T09:10:44.364Z,19.70
2022-10-28T09:13:14.194Z,19.90
2022-10-28T09:16:15.973Z,19.70
2022-10-28T09:18:55.920Z,19.50
2022-10-28T09:21:48.940Z,19.60
2022-10-28T09:24:21.002Z,19.70
2022-10-28T09:27:06.425Z,19.90
2022-10-28T09:29:51.732Z,20.10
2022-10-28T09:32:41.833Z,20.10
2022-10-28T09:35:24.960Z,20.10
2022-10-28T09:37:59.510Z,20.00
2022-10-28T09:40:30.821Z,19.90
2022-10-28T09:43:27.179Z,19.90
2022-10-28T09:46:00.981Z,20.30
2022-10-28T09:48:33.095Z,20.80
2022-10-28T09:51:01.033Z,20.80
2022-10-28T09:53:49.863Z,21.00
2022-10-28T09:56:16.997Z,20.80
2022-10-28T09:58:47.873Z,20.70
2022-10-28T10:01:17.969Z,20.80
2022-10-28T10:03:49.421Z,20.90
2022-10-28T10:06:26.125Z,21.00
2022-10-28T10:08:59.255Z,21.10
2022-10-28T10:11:44.320Z,21.20
2022-10-28T10:14:15.956Z,21.50
2022-10-28T10:16:48.057Z,21.50
2022-10-28T10:19:15.131Z,21.30
2022-10-28T10:21:51.102Z,21.40
2022-10-28T10:24:25.373Z,21.50
2022-10-28T10:26:53.534Z,21.50
2022-10-28T10:29:22.162Z,21.60
2022-10-28T10:32:05.946Z,21.50
2022-10-28T10:34:33.557Z,21.70
2022-10-28T10:37:00.701Z,21.70
2022-10-28T10:39:37.011Z,21.80
2022-10-28T10:42:16.480Z,21.90
2022-10-28T10:44:43.960Z,21.70
2022-10-28T10:47:11.896Z,21.90
2022-10-28T10:49:39.099Z,22.00
2022-10-28T10:52:28.572Z,22.00
2022-10-28T10:55:03.727Z,22.10
2022-10-28T10:57:31.905Z,22.50
2022-10-28T10:59:59.349Z,22.50
2022-10-28T11:02:35.152Z,22.30
2022-10-28T11:05:10.694Z,21.90
2022-10-28T11:07:40.565Z,21.80
2022-10-28T11:10:30.234Z,21.60
2022-10-28T11:13:02.101Z,22.00
2022-10-28T11:15:31.277Z,22.50
2022-10-28T11:18:21.039Z,22.50
2022-10-28T11:21:07.882Z,22.30
2022-10-28T11:23:37.913Z,22.20
2022-10-28T11:26:09.667Z,22.20
2022-10-28T11:29:10.015Z,22.10
2022-10-28T11:32:05.442Z,22.00
2022-10-28T11:34:55.611Z,22.10
2022-10-28T11:37:41.271Z,22.00
2022-10-28T11:40:30.942Z,22.00
2022-10-28T11:43:09.895Z,21.90
2022-10-28T11:46:04.876Z,21.80
2022-10-28T11:48:50.630Z,22.00
2022-10-28T11:51:31.091Z,21.80
2022-10-28T11:54:25.479Z,21.70
2022-10-28T11:57:06.077Z,21.70
2022-10-28T12:00:00.698Z,21.60
2022-10-28T12:02:53.693Z,21.60
2022-10-28T12:05:28.419Z,21.50
2022-10-28T12:08:10.689Z,21.70
2022-10-28T12:11:04.950Z,21.60
2022-10-28T12:13:41.405Z,21.60
2022-10-28T12:16:29.008Z,21.60
2022-10-28T12:19:14.867Z,21.70
2022-10-28T12:22:00.035Z,21.60
2022-10-28T12:24:28.722Z,21.60
2022-10-28T12:26:59.707Z,21.60
2022-10-28T12:29:41.530Z,21.70
2022-10-28T12:32:14.191Z,21.50
2022-10-28T12:34:51.054Z,21.50
2022-10-28T12:37:48.712Z,21.40
2022-10-28T12:40:23.210Z,21.50
2022-10-28T12:43:12.090Z,21.50
2022-10-28T12:45:42.412Z,21.60
2022-10-28T12:48:38.999Z,21.60
2022-10-28T12:51:29.203Z,21.60
2022-10-28T12:54:17.635Z,21.50
2022-10-28T12:56:50.948Z,21.50
2022-10-28T12:59:38.039Z,21.50
2022-10-28T13:02:13.196Z,21.50
2022-10-28T13:04:41.179Z,21.50
2022-10-28T13:07:36.052Z,21.50
2022-10-28T13:10:25.694Z,21.40
2022-10-28T13:13:26.370Z,21.50
2022-10-28T13:16:19.014Z,21.50
2022-10-28T13:19:18.175Z,21.40
2022-10-28T13:22:06.021Z,21.40
2022-10-28T13:24:49.484Z,21.40
2022-10-28T13:27:17.079Z,21.40
2022-10-28T13:29:51.367Z,21.40
2022-10-28T13:32:40.433Z,21.20
2022-10-28T13:35:22.486Z,21.20
2022-10-28T13:37:51.825Z,21.10
2022-10-28T13:40:31.054Z,21.10
2022-10-28T13:42:59.618Z,21.10
2022-10-28T13:45:48.443Z,21.10
2022-10-28T13:48:43.117Z,21.00
2022-10-28T13:51:10.384Z,20.90
2022-10-28T13:53:54.111Z,20.80
2022-10-28T13:56:44.829Z,20.70
2022-10-28T13:59:14.623Z,20.70
2022-10-28T14:01:41.734Z,20.70
2022-10-28T14:04:28.112Z,20.60
2022-10-28T14:07:14.065Z,20.70
2022-10-28T14:09:41.817Z,20.60
2022-10-28T14:12:26.146Z,20.50
2022-10-28T14:14:56.030Z,20.40
2022-10-28T14:17:27.305Z,20.40
2022-10-28T14:19:55.212Z,20.40
2022-10-28T14:22:33.143Z,20.30
2022-10-28T14:25:01.075Z,20.30
2022-10-28T14:27:39.477Z,20.40
2022-10-28T14:30:16.184Z,20.40
2022-10-28T14:33:18.585Z,20.50
2022-10-28T14:35:48.295Z,20.30
2022-10-28T14:38:49.804Z,20.40
2022-10-28T14:41:35.300Z,20.20
2022-10-28T14:44:31.023Z,20.20
2022-10-28T14:47:22.700Z,20.20
2022-10-28T14:50:02.250Z,20.20
2022-10-28T14:52:33.684Z,20.00
2022-10-28T14:55:05.439Z,19.90
2022-10-28T14:57:36.068Z,19.70
2022-10-28T15:00:07.344Z,19.50
2022-10-28T15:02:37.281Z,19.50
2022-10-28T15:05:22.048Z,19.50
2022-10-28T15:07:49.227Z,19.30
2022-10-28T15:10:26.147Z,19.20
2022-10-28T15:12:55.227Z,19.20
2022-10-28T15:15:27.744Z,19.10
2022-10-28T15:17:55.310Z,19.00
2022-10-28T15:20:28.094Z,19.00
2022-10-28T15:23:20.849Z,18.90
2022-10-28T15:26:09.845Z,18.80
2022-10-28T15:28:38.015Z,18.70
2022-10-28T15:31:05.122Z,18.60
2022-10-28T15:33:38.021Z,18.50
2022-10-28T15:36:17.838Z,18.50
2022-10-28T15:39:08.050Z,18.40
2022-10-28T15:41:41.529Z,18.30
2022-10-28T15:44:26.039Z,18.20
2022-10-28T15:46:53.574Z,18.10
2022-10-28T15:49:41.084Z,18.00
2022-10-28T15:52:39.222Z,17.90
2022-10-28T15:55:35.993Z,17.80
2022-10-28T15:58:19.242Z,17.70
2022-10-28T16:00:54.954Z,17.70
2022-10-28T16:06:00.375Z,17.50
2022-10-28T16:08:30.160Z,17.40
2022-10-28T16:11:03.353Z,17.40
2022-10-28T16:13:37.384Z,17.30
2022-10-28T16:16:04.407Z,17.20
2022-10-28T16:18:35.078Z,17.10
2022-10-28T16:21:04.554Z,17.10
2022-10-28T16:23:38.977Z,17.00
2022-10-28T16:26:06.652Z,16.90
2022-10-28T16:28:34.015Z,16.90
2022-10-28T16:31:02.603Z,16.80
2022-10-28T16:33:35.309Z,16.70
2022-10-28T16:36:03.251Z,16.70
2022-10-28T16:38:31.417Z,16.60
2022-10-28T16:41:00.326Z,16.60
2022-10-28T16:43:29.604Z,16.50
2022-10-28T16:46:00.990Z,16.40
2022-10-28T16:48:30.725Z,16.40
2022-10-28T16:51:01.669Z,16.30
2022-10-28T16:53:29.104Z,16.30
2022-10-28T16:55:59.091Z,16.20
2022-10-28T16:58:28.008Z,16.10
2022-10-28T17:00:56.352Z,16.10
2022-10-28T17:03:23.435Z,16.00
2022-10-28T17:05:50.437Z,15.90
2022-10-28T17:08:30.777Z,15.80
2022-10-28T17:11:04.781Z,15.70
2022-10-28T17:13:31.770Z,15.50
2022-10-28T17:15:58.715Z,15.40
2022-10-28T17:18:25.963Z,15.30
2022-10-28T17:21:03.131Z,15.20
2022-10-28T17:23:30.395Z,15.20
2022-10-28T17:26:02.940Z,15.10
2022-10-28T17:28:30.074Z,15.10
2022-10-28T17:31:05.530Z,15.10
2022-10-28T17:33:33.122Z,15.00
2022-10-28T17:36:08.716Z,15.00
2022-10-28T17:38:36.854Z,15.00
2022-10-28T17:41:04.092Z,15.00
2022-10-28T17:43:31.351Z,14.90
2022-10-28T17:46:06.111Z,14.80
2022-10-28T17:48:34.060Z,14.70
2022-10-28T17:51:01.190Z,14.70
2022-10-28T17:53:28.334Z,14.60
2022-10-28T17:55:59.697Z,14.60
2022-10-28T17:58:27.323Z,14.50
2022-10-28T18:01:03.182Z,14.50
2022-10-28T18:03:33.993Z,14.50
2022-10-28T18:06:10.859Z,14.50
2022-10-28T18:08:40.135Z,14.50
2022-10-28T18:11:09.271Z,14.40
2022-10-28T18:13:38.482Z,14.40
2022-10-28T18:16:14.153Z,14.40
2022-10-28T18:18:42.738Z,14.40
2022-10-28T18:21:13.500Z,14.40
2022-10-28T18:23:41.334Z,14.40
2022-10-28T18:26:12.268Z,14.40
2022-10-28T18:28:40.277Z,14.40
2022-10-28T18:31:16.433Z,14.30
2022-10-28T18:33:44.442Z,14.30
2022-10-28T18:36:15.159Z,14.30
2022-10-28T18:38:42.455Z,14.30
2022-10-28T18:41:14.779Z,14.20
2022-10-28T18:43:42.270Z,14.20
2022-10-28T18:46:09.690Z,14.20
2022-10-28T18:48:36.776Z,14.10
2022-10-28T18:51:06.864Z,14.10
2022-10-28T18:53:39.402Z,14.10
2022-10-28T18:56:08.721Z,14.10
2022-10-28T18:58:35.799Z,14.10
2022-10-28T19:01:07.984Z,14.00
2022-10-28T19:03:35.269Z,14.00
2022-10-28T19:06:11.118Z,14.00
2022-10-28T19:08:39.032Z,14.00
2022-10-28T19:11:07.308Z,14.00
2022-10-28T19:13:39.616Z,14.00
2022-10-28T19:16:07.516Z,13.90
2022-10-28T19:18:38.452Z,13.80
2022-10-28T19:21:13.683Z,13.80
2022-10-28T19:23:41.884Z,13.70
2022-10-28T19:26:10.417Z,13.70
2022-10-28T19:28:41.545Z,13.60
2022-10-28T19:31:14.366Z,13.60
2022-10-28T19:33:43.271Z,13.50
2022-10-28T19:36:18.588Z,13.40
2022-10-28T19:38:46.948Z,13.40
2022-10-28T19:41:16.633Z,13.40
2022-10-28T19:43:44.172Z,13.30
2022-10-28T19:46:17.239Z,13.20
2022-10-28T19:48:47.267Z,13.10
2022-10-28T19:51:17.360Z,13.00
2022-10-28T19:53:49.284Z,12.90
2022-10-28T19:56:19.285Z,12.90
2022-10-28T19:58:57.650Z,12.80
2022-10-28T20:01:27.920Z,12.80
2022-10-28T20:03:55.757Z,12.70
2022-10-28T20:06:29.832Z,12.60
2022-10-28T20:08:56.784Z,12.50
2022-10-28T20:11:26.943Z,12.50
2022-10-28T20:14:03.316Z,12.40
2022-10-28T20:16:31.343Z,12.40
2022-10-28T20:18:58.977Z,12.30
2022-10-28T20:21:28.510Z,12.30
2022-10-28T20:23:57.005Z,12.30
2022-10-28T20:26:29.858Z,12.30
2022-10-28T20:28:58.346Z,12.20
2022-10-28T20:31:27.541Z,12.20
2022-10-28T20:34:00.640Z,12.20
2022-10-28T20:36:35.158Z,12.20
2022-10-28T20:39:09.651Z,12.10
2022-10-28T20:41:38.573Z,12.10
2022-10-28T20:44:06.564Z,12.10
2022-10-28T20:46:33.768Z,12.10
2022-10-28T20:49:01.001Z,12.10
2022-10-28T20:51:31.845Z,12.10
2022-10-28T20:53:59.419Z,12.10
2022-10-28T20:56:31.473Z,12.10
2022-10-28T20:58:59.366Z,12.10
2022-10-28T21:01:29.529Z,12.10
2022-10-28T21:04:01.387Z,12.10
2022-10-28T21:06:29.607Z,12.10
2022-10-28T21:08:57.667Z,12.10
2022-10-28T21:11:25.611Z,12.10
2022-10-28T21:13:55.427Z,12.00
2022-10-28T21:16:25.386Z,12.00
2022-10-28T21:18:53.404Z,11.90
2022-10-28T21:21:21.679Z,11.80
2022-10-28T21:23:48.858Z,11.70
2022-10-28T21:26:15.816Z,11.60
2022-10-28T21:28:42.898Z,11.60
2022-10-28T21:31:15.157Z,11.50
2022-10-28T21:33:43.307Z,11.40
2022-10-28T21:36:14.247Z,11.40
2022-10-28T21:38:41.826Z,11.30
2022-10-28T21:41:15.798Z,11.30
2022-10-28T21:43:45.517Z,11.30
2022-10-28T21:46:12.744Z,11.20
2022-10-28T21:48:40.181Z,11.20
2022-10-28T21:51:13.435Z,11.20
2022-10-28T21:53:43.286Z,11.20
2022-10-28T21:56:18.276Z,11.20
2022-10-28T21:58:47.775Z,11.20
2022-10-28T22:01:16.223Z,11.20
2022-10-28T22:03:43.611Z,11.10
2022-10-28T22:06:11.292Z,11.10
2022-10-28T22:08:38.563Z,11.10
2022-10-28T22:11:09.812Z,11.00
2022-10-28T22:13:36.954Z,11.00
2022-10-28T22:16:07.162Z,11.00
2022-10-28T22:18:36.216Z,11.00
2022-10-28T22:21:11.887Z,10.90
2022-10-28T22:23:39.476Z,10.90
2022-10-28T22:26:08.889Z,10.80
2022-10-28T22:28:35.928Z,10.90
2022-10-28T22:31:06.207Z,10.80
2022-10-28T22:33:33.509Z,10.90
2022-10-28T22:36:03.729Z,10.80
2022-10-28T22:38:30.887Z,10.90
2022-10-28T22:41:06.164Z,10.90
2022-10-28T22:43:33.909Z,10.90
2022-10-28T22:46:01.829Z,10.90
2022-10-28T22:48:28.842Z,10.90
2022-10-28T22:50:56.708Z,10.80
2022-10-28T22:53:24.005Z,10.80
2022-10-28T22:55:53.671Z,10.80
2022-10-28T22:58:21.677Z,10.80
2022-10-28T23:00:50.017Z,10.70
2022-10-28T23:03:17.516Z,10.70
2022-10-28T23:05:44.462Z,10.80
2022-10-28T23:08:16.285Z,10.80
2022-10-28T23:10:43.550Z,10.70
2022-10-28T23:13:12.361Z,10.70
2022-10-28T23:15:39.497Z,10.70
2022-10-28T23:18:06.520Z,10.70
2022-10-28T23:20:35.824Z,10.70
2022-10-28T23:23:02.868Z,10.60
2022-10-28T23:25:30.020Z,10.60
2022-10-28T23:27:57.770Z,10.60
2022-10-28T23:30:25.165Z,10.50
2022-10-28T23:32:52.362Z,10.50
2022-10-28T23:35:19.275Z,10.50
2022-10-28T23:37:46.296Z,10.40
2022-10-28T23:40:13.428Z,10.30
2022-10-28T23:42:40.478Z,10.30
2022-10-28T23:45:09.533Z,10.30
2022-10-28T23:47:36.827Z,10.30
2022-10-28T23:50:04.259Z,10.20
2022-10-28T23:52:31.325Z,10.20
2022-10-28T23:54:58.382Z,10.20
2022-10-28T23:57:25.346Z,10.20
2022-10-28T23:59:53.664Z,10.20
